Time;durP1;ratioP1;P1;durP2;ratioP2;P2;SDS_P1;SDS_P2;PMS_P1;PMS_P2;Temp;Humidity;BMP_temperature;BMP_pressure;BME280_temperature;BME280_humidity;BME280_pressure;Samples;Min_cycle;Max_cycle;Signal;HPM_P1;HPM_P2
2022/05/04 00:00:32;;;;;;;7.65;6.07;;;14.60;99.90;;;14.50;100.00;100453.28;4970240;28;20054;-77
2022/05/04 00:02:59;;;;;;;7.25;6.57;;;14.60;99.90;;;14.49;100.00;100443.63;4970673;28;20101;-77
2022/05/04 00:05:26;;;;;;;8.50;6.50;;;14.80;99.90;;;14.42;100.00;100445.63;4970695;28;20500;-77
2022/05/04 00:07:53;;;;;;;8.68;6.85;;;15.20;99.90;;;14.45;100.00;100442.84;4988504;28;20599;-77
2022/05/04 00:10:22;;;;;;;9.38;6.72;;;15.40;99.90;;;14.33;100.00;100438.91;4990752;28;20046;-76
2022/05/04 00:12:49;;;;;;;7.70;6.57;;;14.40;99.90;;;14.36;100.00;100430.84;4975345;28;20046;-77
2022/05/04 00:15:16;;;;;;;8.45;7.55;;;14.40;99.90;;;14.35;100.00;100431.78;4991649;28;20054;-77
2022/05/04 00:17:43;;;;;;;8.60;7.47;;;14.80;99.90;;;14.30;100.00;100441.69;4991332;28;20054;-77
2022/05/04 00:20:11;;;;;;;9.75;8.45;;;14.30;99.90;;;14.20;100.00;100438.50;4974011;28;20046;-78
2022/05/04 00:22:38;;;;;;;8.00;7.15;;;14.30;99.90;;;14.13;100.00;100439.66;4992992;28;20054;-77
2022/05/04 00:25:06;;;;;;;8.73;7.93;;;14.30;99.90;;;14.03;100.00;100441.81;4991626;28;20046;-77
2022/05/04 00:27:34;;;;;;;8.73;7.93;;;14.20;99.90;;;14.04;100.00;100430.28;4993752;28;20053;-77
2022/05/04 00:30:01;;;;;;;8.68;7.80;;;14.20;99.90;;;14.03;100.00;100431.22;4991561;28;20045;-76
2022/05/04 00:32:28;;;;;;;10.93;8.18;;;14.10;99.90;;;13.95;100.00;100426.22;4990854;28;20517;-77
2022/05/04 00:34:55;;;;;;;8.57;7.80;;;14.40;99.90;;;13.90;100.00;100428.19;4991848;28;20047;-77
2022/05/04 00:37:22;;;;;;;8.52;7.72;;;14.10;99.90;;;13.82;100.00;100428.47;5007693;28;20085;-78
2022/05/04 00:39:50;;;;;;;12.27;8.48;;;14.30;99.90;;;13.82;100.00;100436.41;4990922;28;20043;-77
2022/05/04 00:42:20;;;;;;;9.38;8.35;;;13.90;99.90;;;13.71;100.00;100433.28;4975256;28;20054;-77
2022/05/04 00:44:49;;;;;;;8.63;7.72;;;13.80;99.90;;;13.69;100.00;100430.66;4992657;28;20174;-76
2022/05/04 00:47:17;;;;;;;8.05;7.25;;;13.70;99.90;;;13.66;100.00;100429.91;4991199;28;20093;-77
2022/05/04 00:49:47;;;;;;;9.02;8.13;;;14.70;99.90;;;13.69;100.00;100435.09;4990126;28;20061;-77
2022/05/04 00:52:16;;;;;;;9.27;8.38;;;13.70;99.90;;;13.68;100.00;100430.75;5006979;28;20399;-78
2022/05/04 00:54:49;;;;;;;9.13;8.13;;;13.70;99.90;;;13.66;100.00;100428.13;5006609;28;20046;-77
2022/05/04 00:58:54;;;;;;;8.70;7.90;;;13.70;99.90;;;13.61;100.00;100430.94;4990929;28;20533;-76
2022/05/04 01:00:07;;;;;;;;;;;13.60;99.90;;;13.67;100.00;100444.88;4990943;28;20042;-77
2022/05/04 01:02:39;;;;;;;10.38;8.82;;;13.70;99.90;;;13.63;100.00;100443.25;4974897;28;20401;-78
2022/05/04 01:05:12;;;;;;;9.13;8.15;;;13.60;99.90;;;13.56;100.00;100438.19;4992149;28;20050;-77
2022/05/04 01:07:41;;;;;;;9.75;8.75;;;13.60;99.90;;;13.52;100.00;100443.63;4992830;28;20050;-77
2022/05/04 01:10:11;;;;;;;9.75;8.85;;;14.20;99.90;;;13.55;100.00;100427.66;5006843;28;20057;-77
2022/05/04 01:12:54;;;;;;;10.43;8.27;;;13.50;99.90;;;13.66;100.00;100440.47;5006600;28;20045;-77
2022/05/04 01:15:23;;;;;;;8.90;7.70;;;13.60;99.90;;;13.62;100.00;100439.75;5006353;28;20288;-77
2022/05/04 01:17:50;;;;;;;11.93;8.30;;;13.60;99.90;;;13.56;100.00;100439.94;4991121;28;20042;-78
2022/05/04 01:20:35;;;;;;;10.00;8.93;;;13.80;99.90;;;13.55;100.00;100443.50;5005310;28;20503;-78
2022/05/04 01:23:02;;;;;;;9.80;8.60;;;12.10;99.90;;;13.54;100.00;100444.44;4990597;28;20477;-77
2022/05/04 01:25:29;;;;;;;10.60;8.43;;;13.50;99.90;;;13.56;100.00;100440.81;5005374;28;20046;-77
2022/05/04 01:27:57;;;;;;;11.30;10.10;;;13.50;99.90;;;13.60;100.00;100450.38;4990015;28;20129;-77
2022/05/04 01:30:24;;;;;;;9.85;8.95;;;13.50;99.90;;;13.42;100.00;100448.34;4988052;28;20484;-77
2022/05/04 01:32:51;;;;;;;8.63;7.68;;;13.50;99.90;;;13.51;100.00;100450.72;5006241;28;20081;-77
2022/05/04 01:35:18;;;;;;;9.95;9.05;;;13.50;99.90;;;13.55;100.00;100454.97;5005762;28;20050;-77
2022/05/04 01:37:45;;;;;;;9.90;8.88;;;13.50;99.90;;;13.56;100.00;100450.53;5005179;28;20034;-77
2022/05/04 01:40:15;;;;;;;9.05;8.15;;;13.60;99.90;;;13.51;100.00;100448.06;4972966;28;20043;-77
2022/05/04 01:42:42;;;;;;;9.75;8.75;;;13.50;99.90;;;13.52;100.00;100448.91;4972367;28;20061;-77
2022/05/04 01:45:10;;;;;;;10.05;9.05;;;13.50;99.90;;;13.51;100.00;100452.47;4974241;28;20069;-77
2022/05/04 01:47:38;;;;;;;8.90;8.10;;;13.50;99.90;;;13.48;100.00;100450.78;4992133;28;20140;-78
2022/05/04 01:50:06;;;;;;;9.68;8.77;;;14.40;99.90;;;13.50;100.00;100450.75;4979306;28;20050;-78
2022/05/04 01:52:33;;;;;;;10.18;8.90;;;13.50;99.90;;;13.47;100.00;100439.38;4994523;28;20050;-78
2022/05/04 01:55:01;;;;;;;10.50;8.93;;;14.30;99.90;;;13.59;100.00;100445.16;4976897;28;20435;-77
2022/05/04 01:57:28;;;;;;;9.63;8.73;;;13.60;99.90;;;13.55;100.00;100446.16;4992635;28;20043;-77
2022/05/04 01:59:55;;;;;;;10.88;9.88;;;14.70;99.90;;;13.54;100.00;100449.72;4993146;28;20129;-78
2022/05/04 02:02:23;;;;;;;11.30;9.50;;;13.50;99.90;;;13.53;100.00;100451.50;4995149;28;20046;-78
2022/05/04 02:04:50;;;;;;;9.85;8.95;;;13.50;99.90;;;13.50;100.00;100453.41;4977717;28;20495;-77
2022/05/04 02:07:17;;;;;;;10.57;9.50;;;13.50;99.90;;;13.54;100.00;100447.94;5007356;28;20043;-78
2022/05/04 02:09:46;;;;;;;13.57;9.55;;;14.80;99.90;;;13.57;100.00;100439.03;5005386;28;20050;-78
2022/05/04 02:12:13;;;;;;;9.73;8.65;;;13.50;99.90;;;13.57;100.00;100439.91;5006500;28;20046;-78
2022/05/04 02:14:40;;;;;;;8.77;7.97;;;13.50;99.90;;;13.57;100.00;100450.47;4989750;28;20051;-77
2022/05/04 02:17:07;;;;;;;8.90;8.00;;;13.60;99.90;;;13.52;100.00;100447.16;4973962;28;20049;-78
2022/05/04 02:19:34;;;;;;;10.88;8.07;;;13.50;99.90;;;13.42;100.00;100445.69;4991943;28;20108;-77
2022/05/04 02:22:01;;;;;;;8.38;7.47;;;13.50;99.90;;;13.43;100.00;100447.44;4993299;28;20054;-77
2022/05/04 02:24:28;;;;;;;11.98;8.10;;;13.50;99.90;;;13.50;100.00;100448.09;4977337;28;20050;-77
2022/05/04 02:26:55;;;;;;;8.85;8.02;;;13.50;99.90;;;13.44;100.00;100449.19;4976389;28;20054;-77
2022/05/04 02:29:22;;;;;;;9.68;8.73;;;13.50;99.90;;;13.38;100.00;100447.56;5006164;28;20050;-78
2022/05/04 02:31:49;;;;;;;8.90;7.82;;;13.50;99.90;;;13.33;100.00;100445.09;4975469;28;20046;-77
2022/05/04 02:34:16;;;;;;;9.48;8.55;;;13.40;99.90;;;13.33;100.00;100437.16;4986758;28;20125;-78
2022/05/04 02:39:29;;;;;;;9.23;8.38;;;13.40;99.90;;;13.31;100.00;100443.44;5006659;28;20052;-77
2022/05/04 02:41:56;;;;;;;9.40;8.50;;;13.30;99.90;;;13.29;100.00;100438.19;4992755;28;20069;-77
2022/05/04 02:44:23;;;;;;;9.38;8.48;;;13.30;99.90;;;13.25;100.00;100438.34;4993169;28;20046;-78
2022/05/04 02:46:50;;;;;;;9.20;7.65;;;13.30;99.90;;;13.26;100.00;100448.88;5010424;28;20054;-78
2022/05/04 02:49:17;;;;;;;9.10;8.20;;;13.30;99.90;;;13.15;100.00;100445.72;4992791;28;20145;-78
2022/05/04 02:51:44;;;;;;;9.43;8.40;;;13.20;99.90;;;13.03;100.00;100445.22;5010078;28;20051;-77
2022/05/04 02:54:11;;;;;;;10.88;8.05;;;14.40;99.90;;;13.08;100.00;100449.50;4994584;28;20042;-78
2022/05/04 02:56:39;;;;;;;8.57;7.78;;;13.10;99.90;;;13.09;100.00;100438.84;4993046;28;20049;-77
2022/05/04 02:59:06;;;;;;;10.13;9.00;;;13.10;99.90;;;13.07;100.00;100438.03;4976392;28;20052;-78
2022/05/04 03:04:19;;;;;;;8.98;8.18;;;13.60;99.90;;;13.02;100.00;100440.00;4993749;28;20046;-77
2022/05/04 03:06:47;;;;;;;11.48;9.52;;;13.10;99.90;;;12.99;100.00;100433.03;4976596;28;20595;-78
2022/05/04 03:09:14;;;;;;;9.43;8.52;;;13.10;99.90;;;12.99;100.00;100437.44;4994402;28;20287;-78
2022/05/04 03:11:55;;;;;;;10.55;9.45;;;13.00;99.90;;;12.99;100.00;100437.44;5008552;28;20070;-78
2022/05/04 03:14:28;;;;;;;10.93;9.85;;;13.00;99.90;;;13.03;100.00;100441.72;4992658;28;20038;-77
2022/05/04 03:16:56;;;;;;;10.88;9.73;;;13.00;99.90;;;13.06;100.00;100436.31;4993436;28;20042;-77
2022/05/04 03:19:25;;;;;;;10.15;9.07;;;13.00;99.90;;;12.99;100.00;100435.66;5011301;28;20861;-78
2022/05/04 03:21:53;;;;;;;10.25;9.23;;;13.00;99.90;;;12.98;100.00;100439.22;5015030;28;20061;-78
2022/05/04 03:24:20;;;;;;;9.52;8.60;;;13.00;99.90;;;12.96;100.00;100443.69;5011669;28;20057;-78
2022/05/04 03:26:47;;;;;;;9.48;8.48;;;13.00;99.90;;;12.91;100.00;100446.47;4994497;28;20058;-77
2022/05/04 03:29:14;;;;;;;11.05;8.35;;;14.00;99.90;;;12.85;100.00;100438.75;4991476;28;20054;-78
2022/05/04 03:31:42;;;;;;;9.63;8.40;;;12.90;99.90;;;12.80;100.00;100431.91;5008883;28;20045;-78
2022/05/04 03:34:09;;;;;;;9.07;8.27;;;13.60;99.90;;;12.80;100.00;100437.19;5009931;28;20046;-77
2022/05/04 03:36:36;;;;;;;10.07;9.15;;;14.10;99.90;;;12.76;100.00;100434.66;5006165;28;20049;-77
2022/05/04 03:39:04;;;;;;;9.90;8.90;;;12.80;99.90;;;12.70;100.00;100436.63;4992360;28;20229;-78
2022/05/04 03:41:32;;;;;;;11.45;9.40;;;12.80;99.90;;;12.75;100.00;100434.69;4994503;28;20049;-77
2022/05/04 03:43:59;;;;;;;10.02;8.85;;;12.80;99.90;;;12.66;100.00;100437.63;5007614;28;20056;-78
2022/05/04 03:46:28;;;;;;;13.25;8.68;;;12.80;99.90;;;12.61;100.00;100430.69;5007712;28;20058;-77
2022/05/04 03:49:01;;;;;;;11.27;8.75;;;13.50;99.90;;;12.60;100.00;100439.53;5006180;28;20073;-78
2022/05/04 03:51:28;;;;;;;9.60;8.63;;;12.70;99.90;;;12.55;100.00;100443.22;5009727;28;20053;-78
2022/05/04 03:53:55;;;;;;;10.65;9.70;;;12.80;99.90;;;12.51;100.00;100441.59;5010386;28;20574;-78
2022/05/04 03:56:22;;;;;;;10.73;9.63;;;13.00;99.90;;;12.50;100.00;100439.88;4977931;28;20488;-78
2022/05/04 03:58:49;;;;;;;10.75;9.65;;;12.60;99.90;;;12.50;100.00;100435.47;5009644;28;20046;-77
2022/05/04 04:01:18;;;;;;;10.10;9.10;;;12.60;99.90;;;12.54;100.00;100445.03;5004159;28;20073;-78
2022/05/04 04:03:45;;;;;;;10.93;9.85;;;12.60;99.90;;;12.43;100.00;100445.34;4991196;28;20078;-78
2022/05/04 04:06:12;;;;;;;11.98;8.40;;;12.60;99.90;;;12.41;100.00;100446.31;5007253;28;20053;-77
2022/05/04 04:08:49;;;;;;;10.00;8.82;;;12.50;99.90;;;12.35;100.00;100447.34;4991388;28;20066;-80
2022/05/04 04:11:18;;;;;;;9.70;8.40;;;12.50;99.90;;;12.37;100.00;100448.16;4975558;28;20455;-78
2022/05/04 04:13:46;;;;;;;9.73;8.73;;;13.30;99.90;;;12.37;100.00;100442.88;4974067;28;20042;-78
2022/05/04 04:16:13;;;;;;;10.20;9.07;;;12.50;99.90;;;12.37;100.00;100457.88;4992579;28;20046;-80
2022/05/04 04:18:40;;;;;;;11.70;10.52;;;12.50;99.90;;;12.30;100.00;100458.03;4994682;28;20034;-79
2022/05/04 04:23:53;;;;;;;9.52;8.52;;;12.40;99.90;;;12.18;100.00;100466.34;4994030;28;20129;-80
2022/05/04 04:26:20;;;;;;;10.80;9.10;;;12.90;99.90;;;12.17;100.00;100472.47;4960158;28;20050;-80
2022/05/04 04:28:47;;;;;;;10.80;9.80;;;12.40;99.90;;;12.18;100.00;100471.59;4991716;28;20118;-76
2022/05/04 04:31:14;;;;;;;10.25;9.38;;;12.30;99.90;;;12.12;100.00;100484.94;4977061;28;20065;-78
2022/05/04 04:33:41;;;;;;;10.27;9.20;;;13.00;99.90;;;12.04;100.00;100479.91;4990599;28;20506;-76
2022/05/04 04:36:09;;;;;;;10.25;8.77;;;12.20;99.90;;;12.10;100.00;100478.88;4969397;28;20046;-76
2022/05/04 04:38:36;;;;;;;11.65;10.45;;;12.20;99.90;;;12.07;100.00;100479.81;5000341;28;20545;-74
2022/05/04 04:41:04;;;;;;;10.40;9.48;;;12.60;99.90;;;12.13;100.00;100479.66;4985850;28;20156;-74
2022/05/04 04:43:31;;;;;;;10.88;9.30;;;12.20;99.90;;;12.04;100.00;100477.25;4982408;28;20042;-75
2022/05/04 04:45:58;;;;;;;9.75;8.77;;;12.20;99.90;;;12.06;100.00;100480.72;5003236;28;20742;-74
2022/05/04 04:48:25;;;;;;;9.93;8.93;;;12.20;99.90;;;12.13;100.00;100482.28;4986717;28;20042;-75
2022/05/04 04:50:53;;;;;;;9.85;8.82;;;12.20;99.90;;;12.17;100.00;100483.03;4983402;28;20215;-74
2022/05/04 04:53:25;;;;;;;9.93;8.95;;;12.20;99.90;;;12.16;100.00;100478.66;4984940;28;20054;-74
2022/05/04 04:55:52;;;;;;;10.43;9.35;;;12.20;99.90;;;12.18;100.00;100484.78;4968341;28;20061;-75
2022/05/04 04:58:20;;;;;;;12.63;9.55;;;12.20;99.90;;;12.16;100.00;100490.09;4986582;28;20046;-74
2022/05/04 05:00:51;;;;;;;10.43;9.40;;;12.20;99.90;;;12.15;100.00;100491.00;4969930;28;20046;-74
2022/05/04 05:03:18;;;;;;;9.38;8.55;;;12.20;99.90;;;12.20;100.00;100499.66;4986083;28;20046;-74
2022/05/04 05:05:45;;;;;;;10.20;9.02;;;12.20;99.90;;;12.17;100.00;100501.50;4985757;28;20046;-74
2022/05/04 05:08:12;;;;;;;10.80;9.70;;;12.20;99.90;;;12.14;100.00;100498.97;4986663;28;20503;-74
2022/05/04 05:10:40;;;;;;;10.15;9.15;;;12.20;99.90;;;12.13;100.00;100508.66;5002809;28;20050;-74
2022/05/04 05:13:07;;;;;;;10.98;9.45;;;12.20;99.90;;;12.03;100.00;100501.91;4986081;28;20053;-74
2022/05/04 05:18:23;;;;;;;10.32;9.30;;;12.20;99.90;;;12.08;100.00;100509.69;4986832;28;20045;-74
2022/05/04 05:20:51;;;;;;;13.50;9.95;;;12.10;99.90;;;12.12;100.00;100506.06;4985562;28;20054;-75
2022/05/04 05:23:23;;;;;;;13.38;9.82;;;12.10;99.90;;;12.15;100.00;100509.47;4985498;28;20122;-75
2022/05/04 05:25:51;;;;;;;11.32;10.13;;;12.00;99.90;;;12.19;100.00;100510.25;4986326;28;20056;-75
2022/05/04 05:28:19;;;;;;;11.27;10.13;;;12.10;99.90;;;12.24;100.00;100504.81;4970469;28;20051;-75
2022/05/04 05:30:46;;;;;;;10.88;9.63;;;12.10;99.90;;;12.20;100.00;100509.34;4985634;28;20610;-74
2022/05/04 05:33:14;;;;;;;10.38;9.15;;;12.10;99.90;;;12.26;100.00;100505.69;4987659;28;20054;-75
2022/05/04 05:35:41;;;;;;;10.90;9.90;;;12.20;99.90;;;12.34;100.00;100512.47;4951108;28;1105141;-75
2022/05/04 05:38:09;;;;;;;11.07;9.98;;;12.20;99.90;;;12.29;100.00;100516.97;4989869;28;20042;-75
2022/05/04 05:40:37;;;;;;;11.40;9.45;;;12.30;99.90;;;12.41;100.00;100518.44;4987956;28;20039;-75
2022/05/04 05:43:04;;;;;;;10.57;8.82;;;13.10;99.90;;;12.39;100.00;100514.09;4989462;28;20473;-74
2022/05/04 05:45:31;;;;;;;9.98;8.82;;;12.40;99.90;;;12.53;100.00;100519.81;4989314;28;20141;-75
2022/05/04 05:47:58;;;;;;;12.40;11.07;;;12.40;99.90;;;12.64;100.00;100519.50;4988342;28;20050;-75
2022/05/04 05:50:26;;;;;;;10.85;9.73;;;12.50;99.90;;;12.60;100.00;100523.16;4989454;28;20043;-75
2022/05/04 05:52:53;;;;;;;10.07;9.10;;;12.50;99.90;;;12.69;100.00;100532.56;4988716;28;20043;-75
2022/05/04 05:55:20;;;;;;;11.23;10.10;;;12.60;99.90;;;12.68;100.00;100529.03;4990098;28;20039;-74
2022/05/04 05:57:48;;;;;;;12.05;10.85;;;13.50;99.90;;;12.77;100.00;100533.19;4989010;28;20491;-75
2022/05/04 06:00:15;;;;;;;12.25;9.82;;;12.70;99.90;;;12.89;100.00;100518.75;4989557;28;20057;-75
2022/05/04 06:02:44;;;;;;;9.98;9.00;;;12.70;99.90;;;12.93;100.00;100523.03;4974974;28;20042;-74
2022/05/04 06:05:12;;;;;;;11.82;9.73;;;12.80;99.90;;;13.04;100.00;100522.69;4988182;28;20389;-75
2022/05/04 06:07:40;;;;;;;12.63;11.15;;;12.80;99.90;;;13.09;100.00;100520.75;4987721;28;20054;-75
2022/05/04 06:10:08;;;;;;;10.27;9.38;;;12.90;99.90;;;13.17;100.00;100521.38;5003822;28;20129;-75
2022/05/04 06:12:35;;;;;;;10.93;9.80;;;13.00;99.90;;;13.24;100.00;100529.09;5003969;28;20477;-75
2022/05/04 06:15:02;;;;;;;12.10;10.88;;;13.10;99.90;;;13.33;100.00;100524.38;5004311;28;20104;-75
2022/05/04 06:17:29;;;;;;;14.80;11.77;;;13.10;99.90;;;13.44;100.00;100525.81;4986990;28;20057;-75
2022/05/04 06:19:56;;;;;;;14.07;12.50;;;13.20;99.90;;;13.47;100.00;100523.06;4971559;28;20462;-75
2022/05/04 06:22:23;;;;;;;14.10;12.60;;;13.30;99.90;;;13.50;100.00;100525.59;4989360;28;20056;-75
2022/05/04 06:24:50;;;;;;;13.68;11.70;;;13.30;99.90;;;13.64;100.00;100526.91;4987253;28;20070;-75
2022/05/04 06:27:17;;;;;;;12.45;11.25;;;13.50;99.90;;;13.74;100.00;100529.22;4989492;28;20054;-75
2022/05/04 06:35:16;;;;;;;14.30;12.35;;;13.60;99.90;;;13.89;100.00;100541.03;4990293;28;20073;-75
2022/05/04 06:37:43;;;;;;;13.45;12.00;;;13.70;99.90;;;13.92;100.00;100537.44;4993017;28;20753;-76
2022/05/04 06:40:11;;;;;;;14.40;11.93;;;13.80;99.90;;;14.00;100.00;100540.66;4992160;28;20066;-77
2022/05/04 06:42:39;;;;;;;14.07;12.63;;;13.80;99.90;;;14.06;100.00;100546.66;4994262;28;20078;-77
2022/05/04 06:45:07;;;;;;;12.65;11.30;;;13.90;99.90;;;14.17;100.00;100537.41;4994481;28;20049;-77
2022/05/04 06:47:35;;;;;;;16.85;12.77;;;13.90;99.90;;;14.26;100.00;100536.19;4978050;28;20058;-78
2022/05/04 06:50:03;;;;;;;16.17;12.93;;;14.10;99.90;;;14.28;100.00;100534.34;4993735;28;20046;-78
2022/05/04 06:52:32;;;;;;;14.00;12.65;;;14.10;99.90;;;14.46;100.00;100535.47;4992313;28;20065;-78
2022/05/04 06:54:59;;;;;;;14.60;13.10;;;14.20;99.90;;;14.44;100.00;100544.38;4992056;28;20096;-77
2022/05/04 06:57:27;;;;;;;13.63;12.18;;;14.30;99.90;;;14.54;100.00;100544.88;4987694;28;20054;-77
2022/05/04 06:59:54;;;;;;;13.93;12.63;;;14.30;99.90;;;14.61;100.00;100546.41;5004130;28;20047;-76
2022/05/04 07:02:22;;;;;;;13.65;12.25;;;14.30;99.90;;;14.70;100.00;100539.88;5002139;28;20050;-77
2022/05/04 07:04:49;;;;;;;13.45;12.00;;;14.40;99.90;;;14.74;100.00;100542.38;5003114;28;20567;-77
2022/05/04 07:07:16;;;;;;;15.77;11.40;;;14.50;99.90;;;14.85;100.00;100535.78;4990984;28;20042;-77
2022/05/04 07:09:43;;;;;;;15.23;12.48;;;14.50;99.90;;;14.91;100.00;100535.56;4989614;28;20044;-77
2022/05/04 07:12:10;;;;;;;14.57;13.07;;;14.60;99.90;;;14.97;100.00;100535.31;4985863;28;20161;-77
2022/05/04 07:14:37;;;;;;;14.45;12.88;;;14.70;99.90;;;15.09;100.00;100535.75;4970462;28;20047;-77
2022/05/04 07:17:04;;;;;;;14.93;13.27;;;14.80;99.90;;;15.04;100.00;100538.59;4973160;28;20050;-78
2022/05/04 07:19:32;;;;;;;14.50;13.00;;;14.80;99.90;;;15.10;100.00;100540.97;4995937;28;20051;-78
2022/05/04 07:21:59;;;;;;;13.82;12.13;;;15.30;99.90;;;15.09;100.00;100539.25;5013613;28;20047;-78
2022/05/04 07:24:26;;;;;;;17.42;12.25;;;14.90;99.90;;;15.17;100.00;100538.94;4999195;28;20053;-78
2022/05/04 07:26:53;;;;;;;14.57;13.18;;;14.90;99.90;;;15.25;100.00;100539.50;5002281;28;20058;-78
2022/05/04 07:29:20;;;;;;;18.20;12.98;;;14.90;99.90;;;15.27;100.00;100526.19;4969563;28;20058;-78
2022/05/04 07:31:48;;;;;;;15.60;12.50;;;15.00;99.90;;;15.38;100.00;100539.84;5005481;28;20046;-80
2022/05/04 07:34:16;;;;;;;13.57;10.85;;;15.00;99.90;;;15.43;100.00;100531.72;5000604;28;20057;-79
2022/05/04 07:36:45;;;;;;;13.70;12.32;;;15.10;99.90;;;15.47;100.00;100545.72;5001029;28;20081;-78
2022/05/04 07:42:21;;;;;;;15.75;11.57;;;15.20;99.90;;;15.51;100.00;100532.25;4986008;28;20047;-80
2022/05/04 07:44:45;;;;;;;13.23;11.40;;;16.50;99.90;;;15.78;100.00;100539.97;4988777;28;20085;-79
2022/05/04 07:47:13;;;;;;;16.48;12.05;;;15.90;99.90;;;15.78;100.00;100536.47;4968420;28;20143;-79
2022/05/04 07:49:40;;;;;;;15.73;12.45;;;15.40;99.70;;;15.78;100.00;100536.47;4986447;28;20117;-79
2022/05/04 07:52:07;;;;;;;12.90;11.52;;;15.40;99.40;;;15.87;100.00;100539.56;5002556;28;20046;-79
2022/05/04 07:54:34;;;;;;;13.20;11.80;;;16.10;99.60;;;15.90;100.00;100535.09;5001798;28;20123;-78
2022/05/04 07:57:01;;;;;;;12.73;11.18;;;15.50;99.30;;;15.94;100.00;100534.91;4998174;28;20459;-78
2022/05/04 07:59:29;;;;;;;14.68;12.70;;;15.60;99.30;;;15.94;100.00;100532.25;5016362;28;20141;-79
2022/05/04 08:04:41;;;;;;;14.45;11.05;;;15.70;99.00;;;16.04;100.00;100531.81;4986713;28;20042;-79
2022/05/04 08:07:08;;;;;;;13.05;11.57;;;15.70;99.00;;;16.15;100.00;100537.53;4985729;28;20070;-79
2022/05/04 08:09:36;;;;;;;15.65;12.15;;;15.80;99.30;;;16.29;100.00;100537.75;5005184;28;20145;-79
2022/05/04 08:12:06;;;;;;;12.63;11.43;;;15.90;99.30;;;16.36;100.00;100543.66;4982820;28;20056;-79
2022/05/04 08:14:33;;;;;;;13.32;11.98;;;15.90;99.20;;;16.44;100.00;100543.31;4984140;28;20042;-80
2022/05/04 08:17:01;;;;;;;15.57;11.65;;;16.00;99.20;;;16.54;100.00;100551.72;4983102;28;20511;-78
2022/05/04 08:19:28;;;;;;;13.25;11.95;;;16.10;99.30;;;16.56;100.00;100550.72;4982374;28;20050;-79
2022/05/04 08:21:56;;;;;;;13.55;12.13;;;16.10;99.00;;;16.70;100.00;100546.53;5000320;28;20516;-79
2022/05/04 08:24:24;;;;;;;13.75;12.25;;;16.20;98.90;;;16.73;100.00;100552.56;5002046;28;20088;-79
2022/05/04 08:26:51;;;;;;;15.82;13.35;;;17.10;99.00;;;16.69;100.00;100543.03;4985427;28;20066;-80
2022/05/04 08:29:18;;;;;;;13.38;12.07;;;16.40;98.50;;;16.92;100.00;100543.72;4985374;28;20069;-80
2022/05/04 08:31:45;;;;;;;13.32;11.77;;;16.50;98.50;;;16.95;100.00;100542.72;5001269;28;20092;-80
2022/05/04 08:34:12;;;;;;;17.92;12.88;;;17.10;98.80;;;17.04;100.00;100544.09;4995499;28;20129;-81
2022/05/04 08:36:40;;;;;;;15.48;12.55;;;16.60;98.80;;;17.09;100.00;100552.72;4994243;28;20050;-78
2022/05/04 08:39:08;;;;;;;14.88;13.00;;;16.70;98.70;;;17.06;100.00;100545.75;4996237;28;20046;-80
2022/05/04 08:41:42;;;;;;;14.95;12.90;;;16.70;98.60;;;17.18;100.00;100554.09;4995475;28;20671;-80
2022/05/04 08:44:12;;;;;;;16.23;14.13;;;16.80;98.70;;;17.14;100.00;100548.91;4982754;28;20046;-78
2022/05/04 08:46:42;;;;;;;14.32;12.82;;;16.80;98.50;;;17.22;100.00;100548.53;5018023;28;20109;-78
2022/05/04 08:49:12;;;;;;;18.10;13.23;;;16.80;98.60;;;17.29;100.00;100551.75;5003400;28;20117;-79
2022/05/04 08:51:41;;;;;;;13.02;11.57;;;16.90;98.60;;;17.49;100.00;100556.06;4988833;28;20050;-77
2022/05/04 08:54:09;;;;;;;15.45;13.25;;;17.00;98.50;;;17.37;100.00;100548.69;4995066;28;20038;-77
2022/05/04 08:56:37;;;;;;;13.23;11.82;;;17.10;98.10;;;17.54;100.00;100553.19;4993013;28;20043;-77
2022/05/04 08:59:05;;;;;;;19.00;12.73;;;17.20;97.90;;;17.69;100.00;100549.75;4993523;28;20047;-79
2022/05/04 09:01:37;;;;;;;14.55;13.00;;;17.20;97.90;;;17.83;100.00;100545.53;4977258;28;20049;-79
2022/05/04 09:04:05;;;;;;;15.00;12.98;;;17.30;97.60;;;17.99;100.00;100540.25;4991161;28;20050;-76
2022/05/04 09:06:41;;;;;;;14.60;12.90;;;17.50;98.00;;;18.20;100.00;100546.28;4992753;28;20798;-78
2022/05/04 09:09:10;;;;;;;14.27;12.77;;;17.60;97.80;;;18.45;100.00;100541.44;4988710;28;20081;-74
2022/05/04 09:11:44;;;;;;;15.88;14.27;;;17.80;97.60;;;18.65;100.00;100543.84;4976325;28;21157;-77
2022/05/04 09:14:15;;;;;;;16.33;14.73;;;18.10;97.30;;;18.69;100.00;100545.41;5005138;28;20419;-77
2022/05/04 09:16:43;;;;;;;16.73;14.07;;;18.20;96.60;;;18.83;100.00;100541.97;4992614;28;20057;-78
2022/05/04 09:19:13;;;;;;;13.38;12.05;;;18.30;96.40;;;18.96;100.00;100539.47;4991931;28;20045;-76
2022/05/04 09:21:42;;;;;;;16.10;12.68;;;18.50;96.70;;;19.04;100.00;100531.06;4991917;28;20045;-76
2022/05/04 09:24:09;;;;;;;15.82;12.25;;;18.60;96.30;;;19.15;100.00;100535.81;4992932;28;20042;-77
2022/05/04 09:26:44;;;;;;;13.68;12.20;;;18.70;95.70;;;19.17;100.00;100541.91;4994378;28;20102;-76
2022/05/04 09:29:13;;;;;;;14.30;11.85;;;18.80;95.40;;;19.17;100.00;100538.38;4993576;28;20081;-78
2022/05/04 09:31:45;;;;;;;14.68;11.55;;;18.90;95.20;;;19.17;98.11;100528.56;4995976;28;20356;-79
2022/05/04 09:34:13;;;;;;;14.65;12.80;;;18.90;94.70;;;19.08;95.74;100526.44;4992251;28;20081;-76
2022/05/04 09:45:15;;;;;;;13.57;12.18;;;19.00;95.30;;;19.34;100.00;100518.72;4988113;28;20463;-78
2022/05/04 09:47:46;;;;;;;14.23;12.48;;;19.00;95.20;;;19.44;100.00;100517.25;4972322;28;20038;-77
2022/05/04 09:50:17;;;;;;;15.98;14.18;;;19.00;95.40;;;19.35;99.38;100515.94;4990026;28;20145;-79
2022/05/04 09:52:48;;;;;;;16.50;14.77;;;19.10;94.80;;;19.32;97.71;100509.97;4972394;28;20052;-79
2022/05/04 09:55:25;;;;;;;15.63;12.80;;;19.10;94.70;;;19.40;100.00;100513.03;4972982;28;20046;-79
2022/05/04 09:57:55;;;;;;;15.95;14.35;;;19.10;94.70;;;19.36;93.37;100512.38;4986979;28;20048;-79
2022/05/04 10:00:25;;;;;;;14.40;12.90;;;19.20;94.20;;;19.18;92.68;100516.97;4987970;28;20042;-79
2022/05/04 10:02:54;;;;;;;18.40;13.80;;;19.10;93.90;;;19.35;94.86;100509.78;4990026;28;20478;-78
2022/05/04 10:05:22;;;;;;;13.32;11.93;;;19.10;94.30;;;19.52;94.56;100514.97;4991047;28;20046;-78
2022/05/04 10:07:51;;;;;;;14.20;12.63;;;19.10;94.40;;;19.68;93.71;100506.91;4990173;28;20077;-78
2022/05/04 10:10:24;;;;;;;13.75;12.18;;;19.20;94.60;;;19.78;85.76;100506.34;4992435;28;20046;-76
2022/05/04 10:12:51;;;;;;;13.73;11.77;;;19.40;93.70;;;19.75;81.05;100503.88;4973008;28;20081;-79
2022/05/04 10:15:20;;;;;;;13.77;12.35;;;20.50;93.30;;;19.76;82.81;100497.56;4987225;28;20078;-77
2022/05/04 10:18:05;;;;;;;15.52;12.90;;;19.50;93.00;;;19.89;83.38;100497.69;4987923;28;20062;-76
2022/05/04 10:20:40;;;;;;;13.95;12.50;;;19.50;93.20;;;19.82;76.63;100498.06;4971283;28;20043;-77
2022/05/04 10:23:27;;;;;;;11.77;10.63;;;19.50;92.60;;;20.10;82.23;100498.19;4977616;28;20100;-78
2022/05/04 10:25:57;;;;;;;15.00;10.20;;;19.60;93.20;;;20.17;82.88;100498.69;4974531;28;20047;-77
2022/05/04 10:28:24;;;;;;;;;;;19.70;93.30;;;20.17;74.98;100490.66;5006615;28;20050;-76
2022/05/04 10:30:55;;;;;;;11.98;10.77;;;19.80;92.20;;;20.17;73.62;100486.19;4958292;28;19929;-78
2022/05/04 10:33:32;;;;;;;12.75;11.43;;;19.80;92.10;;;20.05;73.65;100482.44;5008561;28;20038;-80
2022/05/04 10:36:20;;;;;;;12.02;10.82;;;19.80;91.80;;;20.38;79.91;100481.31;4959078;28;20042;-79